sensor_id;sensor_type;location;lat;lon;timestamp;pressure;altitude;pressure_sealevel;temperature;humidity
29215;BME280;16252;49.816;7.964;2023-02-01T00:01:38;100554.84;;;8.33;64.15
29215;BME280;16252;49.816;7.964;2023-02-01T00:04:03;100533.38;;;8.20;63.85
29215;BME280;16252;49.816;7.964;2023-02-01T00:06:29;100550.13;;;8.38;63.92
29215;BME280;16252;49.816;7.964;2023-02-01T00:08:54;100561.50;;;8.41;63.81
29215;BME280;16252;49.816;7.964;2023-02-01T00:11:20;100400.81;;;7.47;63.89
29215;BME280;16252;49.816;7.964;2023-02-01T00:13:46;100566.22;;;8.52;64.01
29215;BME280;16252;49.816;7.964;2023-02-01T00:16:17;100565.94;;;8.57;64.12
29215;BME280;16252;49.816;7.964;2023-02-01T00:18:47;100569.41;;;8.59;64.00
29215;BME280;16252;49.816;7.964;2023-02-01T00:21:13;100542.75;;;8.43;63.88
29215;BME280;16252;49.816;7.964;2023-02-01T00:23:39;100561.38;;;8.59;63.89
29215;BME280;16252;49.816;7.964;2023-02-01T00:26:06;100560.34;;;8.61;63.85
29215;BME280;16252;49.816;7.964;2023-02-01T00:28:31;100538.78;;;8.50;63.92
29215;BME280;16252;49.816;7.964;2023-02-01T00:31:01;100557.50;;;8.64;63.79
29215;BME280;16252;49.816;7.964;2023-02-01T00:33:27;100511.00;;;8.38;63.63
29215;BME280;16252;49.816;7.964;2023-02-01T00:36:07;100522.69;;;8.52;63.72
29215;BME280;16252;49.816;7.964;2023-02-01T00:38:34;100550.06;;;8.70;63.77
29215;BME280;16252;49.816;7.964;2023-02-01T00:41:07;100540.13;;;8.57;64.02
29215;BME280;16252;49.816;7.964;2023-02-01T00:43:33;100529.66;;;8.54;64.05
29215;BME280;16252;49.816;7.964;2023-02-01T00:45:59;100528.69;;;8.55;64.09
29215;BME280;16252;49.816;7.964;2023-02-01T00:48:25;100554.44;;;8.71;64.32
29215;BME280;16252;49.816;7.964;2023-02-01T00:50:51;100503.84;;;8.39;64.38
29215;BME280;16252;49.816;7.964;2023-02-01T00:53:16;100550.06;;;8.70;64.17
29215;BME280;16252;49.816;7.964;2023-02-01T00:55:44;100555.59;;;8.66;64.49
29215;BME280;16252;49.816;7.964;2023-02-01T00:58:10;100549.69;;;8.61;64.33
29215;BME280;16252;49.816;7.964;2023-02-01T01:00:35;100532.31;;;8.54;64.52
29215;BME280;16252;49.816;7.964;2023-02-01T01:03:00;100530.69;;;8.52;64.40
29215;BME280;16252;49.816;7.964;2023-02-01T01:05:26;100500.78;;;8.31;64.40
29215;BME280;16252;49.816;7.964;2023-02-01T01:07:53;100548.22;;;8.56;64.60
29215;BME280;16252;49.816;7.964;2023-02-01T01:10:18;100515.47;;;8.38;64.62
29215;BME280;16252;49.816;7.964;2023-02-01T01:12:43;100545.84;;;8.51;64.74
29215;BME280;16252;49.816;7.964;2023-02-01T01:15:09;100538.19;;;8.45;64.89
29215;BME280;16252;49.816;7.964;2023-02-01T01:17:34;100530.38;;;8.42;64.60
29215;BME280;16252;49.816;7.964;2023-02-01T01:19:59;100526.75;;;8.43;64.95
29215;BME280;16252;49.816;7.964;2023-02-01T01:22:24;100539.91;;;8.46;64.85
29215;BME280;16252;49.816;7.964;2023-02-01T01:24:50;100512.91;;;8.36;64.83
29215;BME280;16252;49.816;7.964;2023-02-01T01:27:15;100479.41;;;8.16;64.95
29215;BME280;16252;49.816;7.964;2023-02-01T01:29:40;100497.44;;;8.27;64.96
29215;BME280;16252;49.816;7.964;2023-02-01T01:32:05;100473.31;;;8.14;65.24
29215;BME280;16252;49.816;7.964;2023-02-01T01:34:31;100362.00;;;7.43;65.28
29215;BME280;16252;49.816;7.964;2023-02-01T01:36:56;100457.94;;;8.03;65.29
29215;BME280;16252;49.816;7.964;2023-02-01T01:39:21;100476.66;;;8.18;65.30
29215;BME280;16252;49.816;7.964;2023-02-01T01:41:47;100531.16;;;8.44;65.09
29215;BME280;16252;49.816;7.964;2023-02-01T01:47:15;100496.94;;;8.20;65.43
29215;BME280;16252;49.816;7.964;2023-02-01T01:49:41;100513.44;;;8.27;65.63
29215;BME280;16252;49.816;7.964;2023-02-01T01:52:07;100513.16;;;8.32;65.73
29215;BME280;16252;49.816;7.964;2023-02-01T01:54:51;100521.50;;;8.41;65.59
29215;BME280;16252;49.816;7.964;2023-02-01T01:57:20;100526.00;;;8.41;65.61
29215;BME280;16252;49.816;7.964;2023-02-01T01:59:52;100494.88;;;8.25;65.94
29215;BME280;16252;49.816;7.964;2023-02-01T02:02:20;100489.63;;;8.24;65.68
29215;BME280;16252;49.816;7.964;2023-02-01T02:04:46;100495.47;;;8.31;65.51
29215;BME280;16252;49.816;7.964;2023-02-01T02:07:16;100494.94;;;8.40;65.83
29215;BME280;16252;49.816;7.964;2023-02-01T02:09:42;100486.69;;;8.29;65.86
29215;BME280;16252;49.816;7.964;2023-02-01T02:12:08;100487.28;;;8.34;65.89
29215;BME280;16252;49.816;7.964;2023-02-01T02:14:34;100440.06;;;8.06;65.95
29215;BME280;16252;49.816;7.964;2023-02-01T02:17:26;100451.84;;;8.32;65.83
29215;BME280;16252;49.816;7.964;2023-02-01T02:22:55;100466.53;;;8.39;65.95
29215;BME280;16252;49.816;7.964;2023-02-01T02:31:02;100460.19;;;8.41;66.05
29215;BME280;16252;49.816;7.964;2023-02-01T02:39:17;100473.31;;;8.44;66.01
29215;BME280;16252;49.816;7.964;2023-02-01T02:44:46;100459.19;;;8.28;66.45
29215;BME280;16252;49.816;7.964;2023-02-01T02:47:37;100476.41;;;8.37;66.70
29215;BME280;16252;49.816;7.964;2023-02-01T02:53:56;100454.97;;;8.24;66.49
29215;BME280;16252;49.816;7.964;2023-02-01T02:56:41;100496.59;;;8.57;65.10
29215;BME280;16252;49.816;7.964;2023-02-01T02:59:26;100385.81;;;7.76;65.99
29215;BME280;16252;49.816;7.964;2023-02-01T03:02:13;100398.00;;;7.80;66.71
29215;BME280;16252;49.816;7.964;2023-02-01T03:04:57;100320.97;;;7.31;66.53
29215;BME280;16252;49.816;7.964;2023-02-01T03:10:55;100498.75;;;8.50;67.07
29215;BME280;16252;49.816;7.964;2023-02-01T03:16:19;100494.06;;;8.39;67.40
29215;BME280;16252;49.816;7.964;2023-02-01T03:21:51;100496.56;;;8.42;67.41
29215;BME280;16252;49.816;7.964;2023-02-01T03:24:23;100493.69;;;8.45;67.49
29215;BME280;16252;49.816;7.964;2023-02-01T03:27:05;100472.22;;;8.33;67.23
29215;BME280;16252;49.816;7.964;2023-02-01T03:29:40;100459.34;;;8.25;67.18
29215;BME280;16252;49.816;7.964;2023-02-01T03:32:09;100483.84;;;8.32;66.89
29215;BME280;16252;49.816;7.964;2023-02-01T03:34:34;100475.25;;;8.27;67.00
29215;BME280;16252;49.816;7.964;2023-02-01T03:37:02;100494.00;;;8.41;67.30
29215;BME280;16252;49.816;7.964;2023-02-01T03:39:34;100486.84;;;8.41;67.23
29215;BME280;16252;49.816;7.964;2023-02-01T03:42:17;100479.09;;;8.37;67.40
29215;BME280;16252;49.816;7.964;2023-02-01T03:44:53;100464.50;;;8.28;67.11
29215;BME280;16252;49.816;7.964;2023-02-01T03:47:27;100467.19;;;8.28;67.65
29215;BME280;16252;49.816;7.964;2023-02-01T03:49:58;100467.06;;;8.30;67.68
29215;BME280;16252;49.816;7.964;2023-02-01T03:52:30;100475.06;;;8.30;67.56
29215;BME280;16252;49.816;7.964;2023-02-01T03:54:58;100461.41;;;8.20;67.18
29215;BME280;16252;49.816;7.964;2023-02-01T03:57:27;100479.47;;;8.31;67.56
29215;BME280;16252;49.816;7.964;2023-02-01T04:00:04;100442.88;;;8.18;67.68
29215;BME280;16252;49.816;7.964;2023-02-01T04:02:30;100451.22;;;8.12;67.40
29215;BME280;16252;49.816;7.964;2023-02-01T04:04:55;100462.00;;;8.25;67.40
29215;BME280;16252;49.816;7.964;2023-02-01T04:07:20;100473.53;;;8.25;67.37
29215;BME280;16252;49.816;7.964;2023-02-01T04:09:46;100462.75;;;8.13;67.31
29215;BME280;16252;49.816;7.964;2023-02-01T04:12:11;100468.75;;;8.16;67.41
29215;BME280;16252;49.816;7.964;2023-02-01T04:14:36;100474.06;;;8.16;67.25
29215;BME280;16252;49.816;7.964;2023-02-01T04:17:01;100470.44;;;8.17;67.30
29215;BME280;16252;49.816;7.964;2023-02-01T04:19:27;100468.09;;;8.13;67.25
29215;BME280;16252;49.816;7.964;2023-02-01T04:21:52;100464.72;;;8.09;67.08
29215;BME280;16252;49.816;7.964;2023-02-01T04:24:17;100479.22;;;8.19;66.94
29215;BME280;16252;49.816;7.964;2023-02-01T04:26:42;100475.97;;;8.14;66.92
29215;BME280;16252;49.816;7.964;2023-02-01T04:29:08;100479.22;;;8.19;66.91
29215;BME280;16252;49.816;7.964;2023-02-01T04:31:34;100468.94;;;8.13;66.62
29215;BME280;16252;49.816;7.964;2023-02-01T04:34:00;100448.31;;;8.01;66.86
29215;BME280;16252;49.816;7.964;2023-02-01T04:36:25;100460.69;;;8.02;66.28
29215;BME280;16252;49.816;7.964;2023-02-01T04:38:51;100460.63;;;8.03;66.29
29215;BME280;16252;49.816;7.964;2023-02-01T04:41:17;100417.59;;;7.79;66.32
29215;BME280;16252;49.816;7.964;2023-02-01T04:43:47;100456.31;;;8.01;66.64
29215;BME280;16252;49.816;7.964;2023-02-01T04:46:13;100484.22;;;8.10;66.47
29215;BME280;16252;49.816;7.964;2023-02-01T04:48:39;100442.09;;;7.86;66.37
29215;BME280;16252;49.816;7.964;2023-02-01T04:51:04;100477.66;;;8.01;66.28
29215;BME280;16252;49.816;7.964;2023-02-01T04:53:30;100476.19;;;7.95;66.29
29215;BME280;16252;49.816;7.964;2023-02-01T04:55:55;100470.16;;;7.92;66.43
29215;BME280;16252;49.816;7.964;2023-02-01T04:58:20;100486.34;;;7.89;66.71
29215;BME280;16252;49.816;7.964;2023-02-01T05:00:46;100465.91;;;7.73;66.72
29215;BME280;16252;49.816;7.964;2023-02-01T05:03:11;100478.41;;;7.87;66.72
29215;BME280;16252;49.816;7.964;2023-02-01T05:05:36;100449.34;;;7.68;66.78
29215;BME280;16252;49.816;7.964;2023-02-01T05:08:02;100480.34;;;7.85;66.69
29215;BME280;16252;49.816;7.964;2023-02-01T05:10:27;100442.13;;;7.70;67.03
29215;BME280;16252;49.816;7.964;2023-02-01T05:12:52;100470.53;;;7.86;66.74
29215;BME280;16252;49.816;7.964;2023-02-01T05:15:36;100463.47;;;7.85;66.64
29215;BME280;16252;49.816;7.964;2023-02-01T05:18:01;100428.63;;;7.73;66.56
29215;BME280;16252;49.816;7.964;2023-02-01T05:20:27;100432.72;;;7.79;66.77
29215;BME280;16252;49.816;7.964;2023-02-01T05:22:52;100458.72;;;7.90;67.01
29215;BME280;16252;49.816;7.964;2023-02-01T05:25:17;100478.75;;;7.97;66.68
29215;BME280;16252;49.816;7.964;2023-02-01T05:27:43;100448.38;;;7.85;66.76
29215;BME280;16252;49.816;7.964;2023-02-01T05:30:09;100469.47;;;8.04;66.78
29215;BME280;16252;49.816;7.964;2023-02-01T05:32:35;100460.69;;;8.02;66.66
29215;BME280;16252;49.816;7.964;2023-02-01T05:35:00;100439.16;;;7.91;66.78
29215;BME280;16252;49.816;7.964;2023-02-01T05:37:26;100436.38;;;7.92;66.54
29215;BME280;16252;49.816;7.964;2023-02-01T05:39:51;100466.28;;;8.13;66.43
29215;BME280;16252;49.816;7.964;2023-02-01T05:42:17;100468.16;;;8.11;66.65
29215;BME280;16252;49.816;7.964;2023-02-01T05:44:42;100441.25;;;8.00;66.51
29215;BME280;16252;49.816;7.964;2023-02-01T05:47:07;100475.91;;;8.16;66.61
29215;BME280;16252;49.816;7.964;2023-02-01T05:49:33;100427.66;;;7.90;66.50
29215;BME280;16252;49.816;7.964;2023-02-01T05:51:58;100461.97;;;8.11;66.61
29215;BME280;16252;49.816;7.964;2023-02-01T05:54:23;100449.44;;;7.97;66.42
29215;BME280;16252;49.816;7.964;2023-02-01T05:56:49;100455.19;;;8.05;66.72
29215;BME280;16252;49.816;7.964;2023-02-01T05:59:14;100468.25;;;8.10;66.71
29215;BME280;16252;49.816;7.964;2023-02-01T06:01:39;100470.91;;;8.10;66.33
29215;BME280;16252;49.816;7.964;2023-02-01T06:04:04;100454.44;;;8.03;66.23
29215;BME280;16252;49.816;7.964;2023-02-01T06:06:30;100452.88;;;7.99;66.34
29215;BME280;16252;49.816;7.964;2023-02-01T06:08:55;100469.28;;;8.07;66.27
29215;BME280;16252;49.816;7.964;2023-02-01T06:11:20;100461.97;;;8.11;65.80
29215;BME280;16252;49.816;7.964;2023-02-01T06:13:45;100471.88;;;8.09;65.69
29215;BME280;16252;49.816;7.964;2023-02-01T06:16:11;100452.88;;;7.99;65.70
29215;BME280;16252;49.816;7.964;2023-02-01T06:18:36;100479.00;;;8.08;65.63
29215;BME280;16252;49.816;7.964;2023-02-01T06:21:02;100463.63;;;7.97;65.61
29215;BME280;16252;49.816;7.964;2023-02-01T06:23:28;100483.75;;;8.03;65.60
29215;BME280;16252;49.816;7.964;2023-02-01T06:26:02;100466.72;;;7.90;65.67
29215;BME280;16252;49.816;7.964;2023-02-01T06:28:28;100467.34;;;7.79;65.49
29215;BME280;16252;49.816;7.964;2023-02-01T06:30:54;100486.72;;;7.82;65.51
29215;BME280;16252;49.816;7.964;2023-02-01T06:33:20;100470.13;;;7.77;65.52
29215;BME280;16252;49.816;7.964;2023-02-01T06:35:45;100479.16;;;7.75;65.37
29215;BME280;16252;49.816;7.964;2023-02-01T06:38:11;100494.59;;;7.84;65.41
29215;BME280;16252;49.816;7.964;2023-02-01T06:40:37;100440.59;;;7.50;65.44
29215;BME280;16252;49.816;7.964;2023-02-01T06:43:03;100465.63;;;7.62;65.52
29215;BME280;16252;49.816;7.964;2023-02-01T06:45:29;100472.88;;;7.60;65.74
29215;BME280;16252;49.816;7.964;2023-02-01T06:47:54;100484.03;;;7.67;65.65
29215;BME280;16252;49.816;7.964;2023-02-01T06:50:19;100456.13;;;7.58;65.62
29215;BME280;16252;49.816;7.964;2023-02-01T06:52:45;100466.19;;;7.53;65.78
29215;BME280;16252;49.816;7.964;2023-02-01T06:55:10;100438.78;;;7.35;65.70
29215;BME280;16252;49.816;7.964;2023-02-01T06:57:36;100447.56;;;7.37;65.70
29215;BME280;16252;49.816;7.964;2023-02-01T07:00:03;100441.53;;;7.33;65.82
29215;BME280;16252;49.816;7.964;2023-02-01T07:02:28;100463.09;;;7.45;65.77
29215;BME280;16252;49.816;7.964;2023-02-01T07:04:54;100444.00;;;7.36;65.66
29215;BME280;16252;49.816;7.964;2023-02-01T07:07:19;100443.84;;;7.40;65.71
29215;BME280;16252;49.816;7.964;2023-02-01T07:09:45;100431.72;;;7.34;65.71
29215;BME280;16252;49.816;7.964;2023-02-01T07:12:10;100421.50;;;7.26;65.81
29215;BME280;16252;49.816;7.964;2023-02-01T07:14:36;100426.09;;;7.24;65.76
29215;BME280;16252;49.816;7.964;2023-02-01T07:17:01;100453.72;;;7.37;65.66
29215;BME280;16252;49.816;7.964;2023-02-01T07:19:26;100447.63;;;7.35;65.47
29215;BME280;16252;49.816;7.964;2023-02-01T07:21:52;100432.25;;;7.25;65.41
29215;BME280;16252;49.816;7.964;2023-02-01T07:24:17;100459.38;;;7.31;65.66
29215;BME280;16252;49.816;7.964;2023-02-01T07:26:42;100482.91;;;7.39;65.46
29215;BME280;16252;49.816;7.964;2023-02-01T07:29:07;100465.66;;;7.30;65.33
29215;BME280;16252;49.816;7.964;2023-02-01T07:31:33;100463.84;;;7.31;65.25
29215;BME280;16252;49.816;7.964;2023-02-01T07:33:58;100469.78;;;7.36;65.18
29215;BME280;16252;49.816;7.964;2023-02-01T07:36:24;100495.78;;;7.47;65.47
29215;BME280;16252;49.816;7.964;2023-02-01T07:38:49;100463.34;;;7.24;65.21
29215;BME280;16252;49.816;7.964;2023-02-01T07:41:16;100480.59;;;7.33;65.43
29215;BME280;16252;49.816;7.964;2023-02-01T07:43:42;100496.06;;;7.42;65.20
29215;BME280;16252;49.816;7.964;2023-02-01T07:46:09;100515.91;;;7.52;65.27
29215;BME280;16252;49.816;7.964;2023-02-01T07:48:35;100505.69;;;7.45;65.17
29215;BME280;16252;49.816;7.964;2023-02-01T07:51:06;100504.91;;;7.43;65.33
29215;BME280;16252;49.816;7.964;2023-02-01T07:53:34;100512.66;;;7.47;65.15
29215;BME280;16252;49.816;7.964;2023-02-01T07:56:00;100510.13;;;7.44;64.94
29215;BME280;16252;49.816;7.964;2023-02-01T07:58:26;100499.59;;;7.43;65.11
29215;BME280;16252;49.816;7.964;2023-02-01T08:00:52;100491.78;;;7.40;64.85
29215;BME280;16252;49.816;7.964;2023-02-01T08:03:37;100497.84;;;7.42;65.00
29215;BME280;16252;49.816;7.964;2023-02-01T08:06:02;100501.41;;;7.42;65.13
29215;BME280;16252;49.816;7.964;2023-02-01T08:08:28;100517.88;;;7.49;65.25
29215;BME280;16252;49.816;7.964;2023-02-01T08:11:04;100498.22;;;7.51;64.99
29215;BME280;16252;49.816;7.964;2023-02-01T08:13:30;100537.31;;;7.67;65.07
29215;BME280;16252;49.816;7.964;2023-02-01T08:16:00;100543.94;;;7.75;64.84
29215;BME280;16252;49.816;7.964;2023-02-01T08:18:25;100534.13;;;7.76;64.66
29215;BME280;16252;49.816;7.964;2023-02-01T08:20:50;100490.94;;;7.55;64.53
29215;BME280;16252;49.816;7.964;2023-02-01T08:23:16;100515.31;;;7.79;64.50
29215;BME280;16252;49.816;7.964;2023-02-01T08:25:42;100523.03;;;7.84;64.79
29215;BME280;16252;49.816;7.964;2023-02-01T08:28:07;100513.59;;;7.78;64.30
29215;BME280;16252;49.816;7.964;2023-02-01T08:30:32;100524.66;;;7.86;64.13
29215;BME280;16252;49.816;7.964;2023-02-01T08:32:58;100534.72;;;7.97;64.10
29215;BME280;16252;49.816;7.964;2023-02-01T08:35:23;100545.13;;;8.01;64.01
29215;BME280;16252;49.816;7.964;2023-02-01T08:37:52;100539.41;;;8.08;63.76
29215;BME280;16252;49.816;7.964;2023-02-01T08:40:17;100536.94;;;8.04;63.78
29215;BME280;16252;49.816;7.964;2023-02-01T08:42:43;100547.88;;;8.16;63.66
29215;BME280;16252;49.816;7.964;2023-02-01T08:45:27;100555.16;;;8.28;63.33
29215;BME280;16252;49.816;7.964;2023-02-01T08:47:55;100505.81;;;8.05;63.19
29215;BME280;16252;49.816;7.964;2023-02-01T08:50:21;100553.22;;;8.30;63.21
29215;BME280;16252;49.816;7.964;2023-02-01T08:52:47;100486.75;;;7.97;63.44
29215;BME280;16252;49.816;7.964;2023-02-01T08:55:13;100551.94;;;8.37;63.45
29215;BME280;16252;49.816;7.964;2023-02-01T08:57:39;100387.59;;;7.46;63.33
29215;BME280;16252;49.816;7.964;2023-02-01T09:00:07;100548.97;;;8.43;63.29
29215;BME280;16252;49.816;7.964;2023-02-01T09:02:33;100547.16;;;8.44;63.24
29215;BME280;16252;49.816;7.964;2023-02-01T09:04:59;100542.13;;;8.54;63.31
29215;BME280;16252;49.816;7.964;2023-02-01T09:07:24;100548.13;;;8.57;63.13
29215;BME280;16252;49.816;7.964;2023-02-01T09:09:49;100556.44;;;8.67;63.13
29215;BME280;16252;49.816;7.964;2023-02-01T09:12:14;100568.81;;;8.68;63.00
29215;BME280;16252;49.816;7.964;2023-02-01T09:14:40;100537.38;;;8.59;62.74
29215;BME280;16252;49.816;7.964;2023-02-01T09:17:05;100542.25;;;8.66;62.79
29215;BME280;16252;49.816;7.964;2023-02-01T09:19:31;100519.75;;;8.56;62.83
29215;BME280;16252;49.816;7.964;2023-02-01T09:21:57;100570.31;;;8.88;62.82
29215;BME280;16252;49.816;7.964;2023-02-01T09:24:22;100529.59;;;8.70;62.76
29215;BME280;16252;49.816;7.964;2023-02-01T09:26:48;100505.75;;;8.67;62.23
29215;BME280;16252;49.816;7.964;2023-02-01T09:29:13;100462.94;;;8.40;62.17
29215;BME280;16252;49.816;7.964;2023-02-01T09:31:39;100523.13;;;8.74;61.99
29215;BME280;16252;49.816;7.964;2023-02-01T09:34:06;100592.84;;;9.13;61.86
29215;BME280;16252;49.816;7.964;2023-02-01T09:36:32;100588.91;;;9.04;61.55
29215;BME280;16252;49.816;7.964;2023-02-01T09:38:58;100571.38;;;9.00;61.51
29215;BME280;16252;49.816;7.964;2023-02-01T09:41:58;100608.78;;;9.28;61.80
29215;BME280;16252;49.816;7.964;2023-02-01T09:47:00;100576.66;;;9.16;61.01
29215;BME280;16252;49.816;7.964;2023-02-01T09:49:29;100549.06;;;9.01;60.76
29215;BME280;16252;49.816;7.964;2023-02-01T09:51:55;100585.22;;;9.21;60.84
29215;BME280;16252;49.816;7.964;2023-02-01T09:54:26;100585.59;;;9.29;60.43
29215;BME280;16252;49.816;7.964;2023-02-01T09:56:58;100601.16;;;9.37;60.63
29215;BME280;16252;49.816;7.964;2023-02-01T09:59:43;100616.63;;;9.46;60.83
29215;BME280;16252;49.816;7.964;2023-02-01T10:02:21;100615.31;;;9.53;60.42
29215;BME280;16252;49.816;7.964;2023-02-01T10:04:48;100607.19;;;9.40;60.56
29215;BME280;16252;49.816;7.964;2023-02-01T10:07:37;100604.69;;;9.51;60.75
29215;BME280;16252;49.816;7.964;2023-02-01T10:13:03;100621.59;;;9.81;60.68
29215;BME280;16252;49.816;7.964;2023-02-01T10:15:58;100611.06;;;9.92;60.81
29215;BME280;16252;49.816;7.964;2023-02-01T10:18:50;100612.09;;;10.04;60.57
29215;BME280;16252;49.816;7.964;2023-02-01T10:21:38;100606.53;;;10.21;61.06
29215;BME280;16252;49.816;7.964;2023-02-01T10:24:34;100623.72;;;10.31;60.49
29215;BME280;16252;49.816;7.964;2023-02-01T10:27:21;100623.28;;;10.37;60.51
29215;BME280;16252;49.816;7.964;2023-02-01T10:29:53;100623.97;;;10.41;59.84
29215;BME280;16252;49.816;7.964;2023-02-01T10:32:21;100616.59;;;10.45;59.27
29215;BME280;16252;49.816;7.964;2023-02-01T10:35:15;100613.19;;;10.55;59.37
29215;BME280;16252;49.816;7.964;2023-02-01T10:37:41;100582.13;;;10.40;58.83
29215;BME280;16252;49.816;7.964;2023-02-01T10:40:19;100579.81;;;10.48;58.71
29215;BME280;16252;49.816;7.964;2023-02-01T10:42:50;100553.50;;;10.28;58.42
29215;BME280;16252;49.816;7.964;2023-02-01T10:45:19;100566.72;;;10.44;58.11
29215;BME280;16252;49.816;7.964;2023-02-01T10:47:47;100498.53;;;10.09;58.03
29215;BME280;16252;49.816;7.964;2023-02-01T10:50:33;100544.16;;;10.48;58.00
29215;BME280;16252;49.816;7.964;2023-02-01T10:53:09;100572.53;;;10.63;58.61
29215;BME280;16252;49.816;7.964;2023-02-01T10:55:39;100534.41;;;10.47;58.49
29215;BME280;16252;49.816;7.964;2023-02-01T10:58:10;100553.09;;;10.61;58.36
29215;BME280;16252;49.816;7.964;2023-02-01T11:00:46;100567.22;;;10.76;58.55
29215;BME280;16252;49.816;7.964;2023-02-01T11:06:11;100567.13;;;10.77;58.10
29215;BME280;16252;49.816;7.964;2023-02-01T11:08:44;100548.16;;;10.68;58.07
29215;BME280;16252;49.816;7.964;2023-02-01T11:11:10;100554.69;;;10.63;58.13
29215;BME280;16252;49.816;7.964;2023-02-01T11:13:38;100562.84;;;10.75;58.26
29215;BME280;16252;49.816;7.964;2023-02-01T11:16:04;100550.84;;;10.80;58.36
29215;BME280;16252;49.816;7.964;2023-02-01T11:18:34;100540.28;;;10.92;58.18
29215;BME280;16252;49.816;7.964;2023-02-01T11:21:00;100480.41;;;10.67;58.46
29215;BME280;16252;49.816;7.964;2023-02-01T11:23:28;100537.06;;;11.12;57.64
29215;BME280;16252;49.816;7.964;2023-02-01T11:26:01;100485.44;;;10.84;57.45
29215;BME280;16252;49.816;7.964;2023-02-01T11:28:31;100485.44;;;10.97;56.80
29215;BME280;16252;49.816;7.964;2023-02-01T11:31:00;100508.16;;;11.04;56.53
29215;BME280;16252;49.816;7.964;2023-02-01T11:33:31;100548.31;;;11.17;56.26
29215;BME280;16252;49.816;7.964;2023-02-01T11:36:05;100526.75;;;10.93;56.38
29215;BME280;16252;49.816;7.964;2023-02-01T11:38:33;100520.25;;;10.84;56.85
29215;BME280;16252;49.816;7.964;2023-02-01T11:41:31;100560.09;;;11.15;57.22
29215;BME280;16252;49.816;7.964;2023-02-01T11:43:59;100561.94;;;11.14;57.00
29215;BME280;16252;49.816;7.964;2023-02-01T11:46:31;100557.09;;;11.19;57.23
29215;BME280;16252;49.816;7.964;2023-02-01T11:49:14;100532.34;;;11.03;57.01
29215;BME280;16252;49.816;7.964;2023-02-01T11:52:03;100555.91;;;11.23;56.06
29215;BME280;16252;49.816;7.964;2023-02-01T11:57:31;100541.13;;;11.05;56.40
29215;BME280;16252;49.816;7.964;2023-02-01T12:08:40;100499.22;;;10.66;56.72
29215;BME280;16252;49.816;7.964;2023-02-01T12:11:29;100518.31;;;10.87;56.69
29215;BME280;16252;49.816;7.964;2023-02-01T12:22:38;100507.38;;;10.90;56.04
29215;BME280;16252;49.816;7.964;2023-02-01T12:27:56;100509.94;;;10.78;56.04
29215;BME280;16252;49.816;7.964;2023-02-01T12:31:29;100442.38;;;10.49;56.24
29215;BME280;16252;49.816;7.964;2023-02-01T12:34:29;100505.66;;;10.89;56.01
29215;BME280;16252;49.816;7.964;2023-02-01T12:39:52;100480.72;;;10.75;55.67
29215;BME280;16252;49.816;7.964;2023-02-01T12:42:26;100493.34;;;10.73;55.69
29215;BME280;16252;49.816;7.964;2023-02-01T12:45:26;100464.66;;;10.75;56.54
29215;BME280;16252;49.816;7.964;2023-02-01T12:47:57;100454.47;;;10.68;55.71
29215;BME280;16252;49.816;7.964;2023-02-01T12:50:29;100451.50;;;10.59;55.42
29215;BME280;16252;49.816;7.964;2023-02-01T12:53:08;100465.84;;;10.71;56.46
29215;BME280;16252;49.816;7.964;2023-02-01T12:55:39;100471.19;;;10.71;55.76
29215;BME280;16252;49.816;7.964;2023-02-01T12:58:17;100464.34;;;10.67;56.02
29215;BME280;16252;49.816;7.964;2023-02-01T13:00:57;100404.22;;;10.20;55.59
29215;BME280;16252;49.816;7.964;2023-02-01T13:06:18;100463.91;;;10.60;55.93
29215;BME280;16252;49.816;7.964;2023-02-01T13:08:53;100453.72;;;10.53;55.55
29215;BME280;16252;49.816;7.964;2023-02-01T13:11:26;100459.44;;;10.61;55.89
29215;BME280;16252;49.816;7.964;2023-02-01T13:13:58;100470.75;;;10.65;55.73
29215;BME280;16252;49.816;7.964;2023-02-01T13:16:31;100465.41;;;10.65;55.53
29215;BME280;16252;49.816;7.964;2023-02-01T13:19:09;100450.31;;;10.63;55.69
29215;BME280;16252;49.816;7.964;2023-02-01T13:21:39;100448.72;;;10.61;55.39
29215;BME280;16252;49.816;7.964;2023-02-01T13:24:27;100414.66;;;10.50;56.18
29215;BME280;16252;49.816;7.964;2023-02-01T13:26:55;100449.13;;;10.68;55.68
29215;BME280;16252;49.816;7.964;2023-02-01T13:29:22;100447.31;;;10.68;55.20
29215;BME280;16252;49.816;7.964;2023-02-01T13:32:01;100412.09;;;10.49;55.42
29215;BME280;16252;49.816;7.964;2023-02-01T13:35:14;100451.28;;;10.75;55.64
29215;BME280;16252;49.816;7.964;2023-02-01T13:40:35;100458.00;;;10.81;55.70
29215;BME280;16252;49.816;7.964;2023-02-01T13:43:13;100452.88;;;10.78;55.28
29215;BME280;16252;49.816;7.964;2023-02-01T13:45:46;100406.53;;;10.52;55.29
29215;BME280;16252;49.816;7.964;2023-02-01T13:48:39;100454.16;;;10.85;55.72
29215;BME280;16252;49.816;7.964;2023-02-01T13:51:06;100447.13;;;10.71;55.44
29215;BME280;16252;49.816;7.964;2023-02-01T13:53:34;100447.66;;;10.76;55.07
29215;BME280;16252;49.816;7.964;2023-02-01T13:56:12;100449.03;;;10.82;55.29
29215;BME280;16252;49.816;7.964;2023-02-01T13:58:41;100468.84;;;10.79;55.32
29215;BME280;16252;49.816;7.964;2023-02-01T14:03:58;100449.78;;;10.71;55.08
29215;BME280;16252;49.816;7.964;2023-02-01T14:11:53;100466.47;;;10.75;55.63
29215;BME280;16252;49.816;7.964;2023-02-01T14:19:36;100458.53;;;10.73;55.10
29215;BME280;16252;49.816;7.964;2023-02-01T14:24:39;100420.66;;;10.54;54.95
29215;BME280;16252;49.816;7.964;2023-02-01T14:27:20;100456.09;;;10.83;54.94
29215;BME280;16252;49.816;7.964;2023-02-01T14:29:51;100411.78;;;10.53;54.82
29215;BME280;16252;49.816;7.964;2023-02-01T14:32:24;100432.97;;;10.69;54.90
29215;BME280;16252;49.816;7.964;2023-02-01T14:34:55;100408.78;;;10.58;54.81
29215;BME280;16252;49.816;7.964;2023-02-01T14:42:44;100452.44;;;10.97;54.63
29215;BME280;16252;49.816;7.964;2023-02-01T15:00:58;100245.28;;;9.73;54.22
29215;BME280;16252;49.816;7.964;2023-02-01T15:06:02;100294.16;;;10.01;54.28